Grao Mogol, Brazil
Current Conditions -  °F | °C
As of 12:00 PM on Tuesday 27 Jan 2015 (Local Time) from SBMK Reporting Station
Scattered Clouds Scattered Clouds  
Wind Chill: 91°   Ceiling: Unl
Heat Index: 91°   Visibility: 6mi
Dew Point: 59°   Wind: 7mph
Humidity: 34%   Direction: NA
Pressure: 30.06"   Gusts: NA
Location:  16.71°S, 42.87°W
Report Text: SBMK 271400Z VRB06KT 9999 SCT040 FEW045TCU 33/15 Q1018
Loading
Personal Weather Stations






























Interactive Weather Map New forecast layout! Learn more

10-Day Weather Forecast

Advertisements
Track Severe Weather on mobile